sensor_id;sensor_type;location;lat;lon;timestamp;temperature;humidity
65235;DHT22;51820;48.374;10.930;2022-09-27T00:03:57;13.40;55.60
65235;DHT22;51820;48.374;10.930;2022-09-27T00:06:30;13.50;56.00
65235;DHT22;51820;48.374;10.930;2022-09-27T00:09:12;13.50;55.90
65235;DHT22;51820;48.374;10.930;2022-09-27T00:14:16;13.50;56.20
65235;DHT22;51820;48.374;10.930;2022-09-27T00:16:46;12.80;71.20
65235;DHT22;51820;48.374;10.930;2022-09-27T00:19:16;13.50;56.80
65235;DHT22;51820;48.374;10.930;2022-09-27T00:21:45;12.10;71.10
65235;DHT22;51820;48.374;10.930;2022-09-27T00:24:15;13.50;56.90
65235;DHT22;51820;48.374;10.930;2022-09-27T00:29:15;13.40;57.50
65235;DHT22;51820;48.374;10.930;2022-09-27T00:34:17;13.40;58.20
65235;DHT22;51820;48.374;10.930;2022-09-27T00:39:15;13.40;58.70
65235;DHT22;51820;48.374;10.930;2022-09-27T00:44:58;13.30;59.10
65235;DHT22;51820;48.374;10.930;2022-09-27T00:47:31;13.30;59.60
65235;DHT22;51820;48.374;10.930;2022-09-27T00:50:04;13.30;59.80
65235;DHT22;51820;48.374;10.930;2022-09-27T00:52:38;16.20;76.30
65235;DHT22;51820;48.374;10.930;2022-09-27T00:55:12;16.00;77.40
65235;DHT22;51820;48.374;10.930;2022-09-27T00:57:42;13.20;60.80
65235;DHT22;51820;48.374;10.930;2022-09-27T01:00:13;12.50;75.70
65235;DHT22;51820;48.374;10.930;2022-09-27T01:02:44;13.20;61.40
65235;DHT22;51820;48.374;10.930;2022-09-27T01:05:15;13.10;61.70
65235;DHT22;51820;48.374;10.930;2022-09-27T01:10:13;13.10;61.80
65235;DHT22;51820;48.374;10.930;2022-09-27T01:12:53;13.30;62.80
65235;DHT22;51820;48.374;10.930;2022-09-27T01:15:30;12.70;77.20
65235;DHT22;51820;48.374;10.930;2022-09-27T01:18:18;12.90;62.70
65235;DHT22;51820;48.374;10.930;2022-09-27T01:27:36;12.80;63.50
65235;DHT22;51820;48.374;10.930;2022-09-27T01:30:26;12.70;63.50
65235;DHT22;51820;48.374;10.930;2022-09-27T01:33:09;11.40;78.10
65235;DHT22;51820;48.374;10.930;2022-09-27T01:35:56;10.30;78.40
65235;DHT22;51820;48.374;10.930;2022-09-27T01:38:33;11.50;79.20
65235;DHT22;51820;48.374;10.930;2022-09-27T01:41:11;11.10;79.60
65235;DHT22;51820;48.374;10.930;2022-09-27T01:44:04;16.70;83.00
65235;DHT22;51820;48.374;10.930;2022-09-27T01:46:44;12.40;65.30
65235;DHT22;51820;48.374;10.930;2022-09-27T01:49:25;10.50;79.20
65235;DHT22;51820;48.374;10.930;2022-09-27T01:51:58;12.30;65.80
65235;DHT22;51820;48.374;10.930;2022-09-27T01:54:31;12.30;65.80
65235;DHT22;51820;48.374;10.930;2022-09-27T01:57:18;12.30;66.10
65235;DHT22;51820;48.374;10.930;2022-09-27T01:59:51;12.30;65.80
65235;DHT22;51820;48.374;10.930;2022-09-27T02:02:45;14.20;83.10
65235;DHT22;51820;48.374;10.930;2022-09-27T02:05:32;12.10;81.40
65235;DHT22;51820;48.374;10.930;2022-09-27T02:08:35;10.00;80.70
65235;DHT22;51820;48.374;10.930;2022-09-27T02:11:13;15.70;83.70
65235;DHT22;51820;48.374;10.930;2022-09-27T02:13:53;15.30;83.80
65235;DHT22;51820;48.374;10.930;2022-09-27T02:16:48;10.60;82.80
65235;DHT22;51820;48.374;10.930;2022-09-27T02:19:31;12.10;68.50
65235;DHT22;51820;48.374;10.930;2022-09-27T02:22:11;11.30;83.30
65235;DHT22;51820;48.374;10.930;2022-09-27T02:24:45;13.70;84.50
65235;DHT22;51820;48.374;10.930;2022-09-27T02:27:20;12.00;68.80
65235;DHT22;51820;48.374;10.930;2022-09-27T02:29:57;12.00;69.30
65235;DHT22;51820;48.374;10.930;2022-09-27T02:32:28;10.50;84.20
65235;DHT22;51820;48.374;10.930;2022-09-27T02:34:59;12.00;70.50
65235;DHT22;51820;48.374;10.930;2022-09-27T02:42:27;11.90;70.00
65235;DHT22;51820;48.374;10.930;2022-09-27T02:44:56;13.60;86.00
65235;DHT22;51820;48.374;10.930;2022-09-27T02:47:43;10.70;84.70
65235;DHT22;51820;48.374;10.930;2022-09-27T02:50:33;10.80;84.80
65235;DHT22;51820;48.374;10.930;2022-09-27T02:53:40;10.60;84.90
65235;DHT22;51820;48.374;10.930;2022-09-27T02:56:34;11.80;70.10
65235;DHT22;51820;48.374;10.930;2022-09-27T02:59:37;14.70;86.80
65235;DHT22;51820;48.374;10.930;2022-09-27T03:02:49;10.80;85.30
65235;DHT22;51820;48.374;10.930;2022-09-27T03:05:40;11.80;70.80
65235;DHT22;51820;48.374;10.930;2022-09-27T03:08:10;11.70;71.10
65235;DHT22;51820;48.374;10.930;2022-09-27T03:13:07;15.50;87.50
65235;DHT22;51820;48.374;10.930;2022-09-27T03:15:36;15.70;87.70
65235;DHT22;51820;48.374;10.930;2022-09-27T03:18:04;9.80;84.90
65235;DHT22;51820;48.374;10.930;2022-09-27T03:20:42;9.60;84.50
65235;DHT22;51820;48.374;10.930;2022-09-27T03:25:44;11.00;85.20
65235;DHT22;51820;48.374;10.930;2022-09-27T03:28:12;9.50;84.60
65235;DHT22;51820;48.374;10.930;2022-09-27T03:30:43;11.90;71.00
65235;DHT22;51820;48.374;10.930;2022-09-27T03:33:22;16.20;88.10
65235;DHT22;51820;48.374;10.930;2022-09-27T03:35:57;11.20;85.90
65235;DHT22;51820;48.374;10.930;2022-09-27T03:40:56;10.70;85.60
65235;DHT22;51820;48.374;10.930;2022-09-27T03:45:58;10.70;85.70
65235;DHT22;51820;48.374;10.930;2022-09-27T03:48:26;9.90;85.90
65235;DHT22;51820;48.374;10.930;2022-09-27T03:50:58;11.70;71.50
65235;DHT22;51820;48.374;10.930;2022-09-27T03:53:26;14.70;88.10
65235;DHT22;51820;48.374;10.930;2022-09-27T04:08:28;11.70;71.20
65235;DHT22;51820;48.374;10.930;2022-09-27T04:24:11;11.70;70.80
65235;DHT22;51820;48.374;10.930;2022-09-27T04:26:48;8.60;84.50
65235;DHT22;51820;48.374;10.930;2022-09-27T04:31:52;14.50;87.30
65235;DHT22;51820;48.374;10.930;2022-09-27T04:40:02;11.70;70.40
65235;DHT22;51820;48.374;10.930;2022-09-27T04:47:29;10.80;84.70
65235;DHT22;51820;48.374;10.930;2022-09-27T04:52:28;10.20;84.30
65235;DHT22;51820;48.374;10.930;2022-09-27T04:57:29;9.50;80.80
65235;DHT22;51820;48.374;10.930;2022-09-27T05:05:26;11.70;70.40
65235;DHT22;51820;48.374;10.930;2022-09-27T05:13:20;11.80;70.10
65235;DHT22;51820;48.374;10.930;2022-09-27T05:16:02;11.80;69.70
65235;DHT22;51820;48.374;10.930;2022-09-27T05:19:09;11.80;69.50
65235;DHT22;51820;48.374;10.930;2022-09-27T05:21:59;11.80;70.00
65235;DHT22;51820;48.374;10.930;2022-09-27T05:29:29;9.40;82.10
65235;DHT22;51820;48.374;10.930;2022-09-27T05:44:41;11.90;67.40
65235;DHT22;51820;48.374;10.930;2022-09-27T05:52:17;11.80;66.50
65235;DHT22;51820;48.374;10.930;2022-09-27T06:00:00;11.80;66.10
65235;DHT22;51820;48.374;10.930;2022-09-27T06:17:21;11.60;65.40
65235;DHT22;51820;48.374;10.930;2022-09-27T06:27:29;14.50;82.80
65235;DHT22;51820;48.374;10.930;2022-09-27T06:30:04;11.70;66.60
65235;DHT22;51820;48.374;10.930;2022-09-27T06:32:54;11.70;65.80
65235;DHT22;51820;48.374;10.930;2022-09-27T06:43:15;15.90;83.10
65235;DHT22;51820;48.374;10.930;2022-09-27T06:46:03;11.70;65.90
65235;DHT22;51820;48.374;10.930;2022-09-27T06:48:58;11.70;66.40
65235;DHT22;51820;48.374;10.930;2022-09-27T07:04:31;12.40;82.70
65235;DHT22;51820;48.374;10.930;2022-09-27T07:07:24;10.80;81.90
65235;DHT22;51820;48.374;10.930;2022-09-27T07:17:26;11.60;67.50
65235;DHT22;51820;48.374;10.930;2022-09-27T07:19:58;11.60;67.00
65235;DHT22;51820;48.374;10.930;2022-09-27T07:22:43;11.60;66.40
65235;DHT22;51820;48.374;10.930;2022-09-27T07:28:00;11.50;67.30
65235;DHT22;51820;48.374;10.930;2022-09-27T07:32:59;11.30;67.00
65235;DHT22;51820;48.374;10.930;2022-09-27T07:35:29;11.30;66.40
65235;DHT22;51820;48.374;10.930;2022-09-27T07:43:00;9.30;80.40
65235;DHT22;51820;48.374;10.930;2022-09-27T07:45:36;11.20;65.90
65235;DHT22;51820;48.374;10.930;2022-09-27T07:51:20;11.20;66.10
65235;DHT22;51820;48.374;10.930;2022-09-27T08:06:53;11.50;65.10
65235;DHT22;51820;48.374;10.930;2022-09-27T08:09:25;11.50;65.90
65235;DHT22;51820;48.374;10.930;2022-09-27T08:11:55;11.60;64.70
65235;DHT22;51820;48.374;10.930;2022-09-27T08:22:23;11.50;63.30
65235;DHT22;51820;48.374;10.930;2022-09-27T08:27:54;11.40;63.60
65235;DHT22;51820;48.374;10.930;2022-09-27T08:38:02;11.40;63.00
65235;DHT22;51820;48.374;10.930;2022-09-27T08:40:45;11.40;63.70
65235;DHT22;51820;48.374;10.930;2022-09-27T08:43:22;11.40;63.40
65235;DHT22;51820;48.374;10.930;2022-09-27T08:46:03;11.40;64.20
65235;DHT22;51820;48.374;10.930;2022-09-27T08:48:35;11.60;63.00
65235;DHT22;51820;48.374;10.930;2022-09-27T08:51:06;11.60;62.40
65235;DHT22;51820;48.374;10.930;2022-09-27T08:53:44;10.70;62.00
65235;DHT22;51820;48.374;10.930;2022-09-27T08:56:15;11.70;62.60
65235;DHT22;51820;48.374;10.930;2022-09-27T08:58:50;11.50;62.80
65235;DHT22;51820;48.374;10.930;2022-09-27T09:01:30;11.80;62.00
65235;DHT22;51820;48.374;10.930;2022-09-27T09:04:10;11.90;62.00
65235;DHT22;51820;48.374;10.930;2022-09-27T09:06:43;11.90;60.80
65235;DHT22;51820;48.374;10.930;2022-09-27T09:09:24;12.00;60.90
65235;DHT22;51820;48.374;10.930;2022-09-27T09:12:28;12.00;60.90
65235;DHT22;51820;48.374;10.930;2022-09-27T09:15:33;9.70;69.90
65235;DHT22;51820;48.374;10.930;2022-09-27T09:18:31;12.20;60.00
65235;DHT22;51820;48.374;10.930;2022-09-27T09:21:12;12.20;59.80
65235;DHT22;51820;48.374;10.930;2022-09-27T09:24:10;12.30;59.20
65235;DHT22;51820;48.374;10.930;2022-09-27T09:26:49;12.30;59.90
65235;DHT22;51820;48.374;10.930;2022-09-27T09:29:44;12.40;58.10
65235;DHT22;51820;48.374;10.930;2022-09-27T09:32:24;12.40;57.60
65235;DHT22;51820;48.374;10.930;2022-09-27T09:34:59;12.40;59.40
65235;DHT22;51820;48.374;10.930;2022-09-27T09:37:35;12.40;57.90
65235;DHT22;51820;48.374;10.930;2022-09-27T09:40:13;12.40;57.80
65235;DHT22;51820;48.374;10.930;2022-09-27T09:42:49;12.40;56.70
65235;DHT22;51820;48.374;10.930;2022-09-27T09:45:21;12.40;56.90
65235;DHT22;51820;48.374;10.930;2022-09-27T09:48:40;12.50;56.50
65235;DHT22;51820;48.374;10.930;2022-09-27T09:51:21;12.60;56.70
65235;DHT22;51820;48.374;10.930;2022-09-27T09:53:54;12.70;55.90
65235;DHT22;51820;48.374;10.930;2022-09-27T09:56:31;12.80;55.50
65235;DHT22;51820;48.374;10.930;2022-09-27T09:59:25;12.80;55.80
65235;DHT22;51820;48.374;10.930;2022-09-27T10:02:00;12.80;55.60
65235;DHT22;51820;48.374;10.930;2022-09-27T10:15:03;12.70;53.60
65235;DHT22;51820;48.374;10.930;2022-09-27T10:17:36;12.80;54.40
65235;DHT22;51820;48.374;10.930;2022-09-27T10:20:20;12.00;63.10
65235;DHT22;51820;48.374;10.930;2022-09-27T10:22:53;13.00;54.80
65235;DHT22;51820;48.374;10.930;2022-09-27T10:25:47;12.10;67.60
65235;DHT22;51820;48.374;10.930;2022-09-27T10:28:35;13.40;52.30
65235;DHT22;51820;48.374;10.930;2022-09-27T10:31:08;13.20;51.60
65235;DHT22;51820;48.374;10.930;2022-09-27T10:33:52;13.20;51.50
65235;DHT22;51820;48.374;10.930;2022-09-27T10:36:25;15.80;67.50
65235;DHT22;51820;48.374;10.930;2022-09-27T10:38:56;13.20;52.00
65235;DHT22;51820;48.374;10.930;2022-09-27T10:41:34;13.30;52.10
65235;DHT22;51820;48.374;10.930;2022-09-27T10:44:25;13.50;51.90
65235;DHT22;51820;48.374;10.930;2022-09-27T10:47:10;13.70;49.10
65235;DHT22;51820;48.374;10.930;2022-09-27T10:50:04;13.90;50.40
65235;DHT22;51820;48.374;10.930;2022-09-27T10:53:01;12.40;63.10
65235;DHT22;51820;48.374;10.930;2022-09-27T10:55:33;14.20;49.00
65235;DHT22;51820;48.374;10.930;2022-09-27T10:58:02;14.30;46.80
65235;DHT22;51820;48.374;10.930;2022-09-27T11:00:32;14.30;46.70
65235;DHT22;51820;48.374;10.930;2022-09-27T11:03:06;14.20;46.10
65235;DHT22;51820;48.374;10.930;2022-09-27T11:05:36;14.10;47.70
65235;DHT22;51820;48.374;10.930;2022-09-27T11:08:21;13.90;48.20
65235;DHT22;51820;48.374;10.930;2022-09-27T11:11:13;12.10;62.20
65235;DHT22;51820;48.374;10.930;2022-09-27T11:13:57;13.60;49.10
65235;DHT22;51820;48.374;10.930;2022-09-27T11:16:40;13.40;49.00
65235;DHT22;51820;48.374;10.930;2022-09-27T11:19:22;13.20;52.40
65235;DHT22;51820;48.374;10.930;2022-09-27T11:22:00;14.00;55.20
65235;DHT22;51820;48.374;10.930;2022-09-27T11:24:49;12.90;55.90
65235;DHT22;51820;48.374;10.930;2022-09-27T11:27:30;12.80;58.10
65235;DHT22;51820;48.374;10.930;2022-09-27T11:30:09;13.00;61.40
65235;DHT22;51820;48.374;10.930;2022-09-27T11:33:06;13.30;60.10
65235;DHT22;51820;48.374;10.930;2022-09-27T11:35:52;13.60;56.60
65235;DHT22;51820;48.374;10.930;2022-09-27T11:38:30;13.40;70.80
65235;DHT22;51820;48.374;10.930;2022-09-27T11:41:31;14.30;52.90
65235;DHT22;51820;48.374;10.930;2022-09-27T11:44:30;14.50;51.20
65235;DHT22;51820;48.374;10.930;2022-09-27T11:47:09;14.60;50.40
65235;DHT22;51820;48.374;10.930;2022-09-27T11:50:11;14.60;51.30
65235;DHT22;51820;48.374;10.930;2022-09-27T11:52:55;14.70;50.70
65235;DHT22;51820;48.374;10.930;2022-09-27T11:55:37;14.90;48.60
65235;DHT22;51820;48.374;10.930;2022-09-27T11:58:18;15.00;50.70
65235;DHT22;51820;48.374;10.930;2022-09-27T12:01:03;15.10;49.90
65235;DHT22;51820;48.374;10.930;2022-09-27T12:04:00;15.20;49.80
65235;DHT22;51820;48.374;10.930;2022-09-27T12:06:44;15.10;48.00
65235;DHT22;51820;48.374;10.930;2022-09-27T12:09:18;15.00;47.70
65235;DHT22;51820;48.374;10.930;2022-09-27T12:11:52;14.80;47.60
65235;DHT22;51820;48.374;10.930;2022-09-27T12:14:32;14.70;51.60
65235;DHT22;51820;48.374;10.930;2022-09-27T12:17:03;14.60;49.90
65235;DHT22;51820;48.374;10.930;2022-09-27T12:19:43;14.60;49.60
65235;DHT22;51820;48.374;10.930;2022-09-27T12:22:31;14.70;49.80
65235;DHT22;51820;48.374;10.930;2022-09-27T12:25:30;16.50;50.60
65235;DHT22;51820;48.374;10.930;2022-09-27T12:28:07;13.10;62.70
65235;DHT22;51820;48.374;10.930;2022-09-27T12:30:41;15.90;53.10
65235;DHT22;51820;48.374;10.930;2022-09-27T12:33:21;14.70;52.40
65235;DHT22;51820;48.374;10.930;2022-09-27T12:35:58;14.60;51.20
65235;DHT22;51820;48.374;10.930;2022-09-27T12:38:34;14.60;52.70
65235;DHT22;51820;48.374;10.930;2022-09-27T12:41:07;14.00;65.30
65235;DHT22;51820;48.374;10.930;2022-09-27T12:43:59;14.50;51.50
65235;DHT22;51820;48.374;10.930;2022-09-27T12:46:51;14.40;51.90
65235;DHT22;51820;48.374;10.930;2022-09-27T12:49:27;14.30;52.80
65235;DHT22;51820;48.374;10.930;2022-09-27T12:52:04;14.20;52.80
65235;DHT22;51820;48.374;10.930;2022-09-27T12:55:21;14.20;53.10
65235;DHT22;51820;48.374;10.930;2022-09-27T12:58:26;14.20;53.60
65235;DHT22;51820;48.374;10.930;2022-09-27T13:01:08;14.30;52.80
65235;DHT22;51820;48.374;10.930;2022-09-27T13:04:11;14.40;51.00
65235;DHT22;51820;48.374;10.930;2022-09-27T13:07:18;12.50;60.80
65235;DHT22;51820;48.374;10.930;2022-09-27T13:10:16;14.70;47.20
65235;DHT22;51820;48.374;10.930;2022-09-27T13:12:54;14.80;47.10
65235;DHT22;51820;48.374;10.930;2022-09-27T13:15:32;14.90;46.90
65235;DHT22;51820;48.374;10.930;2022-09-27T13:18:05;14.90;45.90
65235;DHT22;51820;48.374;10.930;2022-09-27T13:20:43;14.90;44.70
65235;DHT22;51820;48.374;10.930;2022-09-27T13:23:56;15.00;45.50
65235;DHT22;51820;48.374;10.930;2022-09-27T13:26:46;15.00;45.10
65235;DHT22;51820;48.374;10.930;2022-09-27T13:29:29;14.90;45.40
65235;DHT22;51820;48.374;10.930;2022-09-27T13:32:23;14.90;44.70
65235;DHT22;51820;48.374;10.930;2022-09-27T13:35:20;14.90;46.00
65235;DHT22;51820;48.374;10.930;2022-09-27T13:37:57;12.90;59.40
65235;DHT22;51820;48.374;10.930;2022-09-27T13:40:35;15.00;44.80
65235;DHT22;51820;48.374;10.930;2022-09-27T13:43:51;14.90;43.80
65235;DHT22;51820;48.374;10.930;2022-09-27T13:46:34;14.90;44.00
65235;DHT22;51820;48.374;10.930;2022-09-27T13:49:14;14.80;44.50
65235;DHT22;51820;48.374;10.930;2022-09-27T13:52:04;14.80;45.80
65235;DHT22;51820;48.374;10.930;2022-09-27T13:54:56;14.80;45.20
65235;DHT22;51820;48.374;10.930;2022-09-27T13:57:42;12.60;58.30
65235;DHT22;51820;48.374;10.930;2022-09-27T14:00:19;19.40;62.30
65235;DHT22;51820;48.374;10.930;2022-09-27T14:03:00;14.70;44.60
65235;DHT22;51820;48.374;10.930;2022-09-27T14:05:40;12.70;44.60
65235;DHT22;51820;48.374;10.930;2022-09-27T14:08:28;14.50;48.80
65235;DHT22;51820;48.374;10.930;2022-09-27T14:11:00;14.50;47.30
65235;DHT22;51820;48.374;10.930;2022-09-27T14:13:49;14.40;46.50
65235;DHT22;51820;48.374;10.930;2022-09-27T14:18:54;14.30;47.70
65235;DHT22;51820;48.374;10.930;2022-09-27T14:21:39;14.20;48.30
65235;DHT22;51820;48.374;10.930;2022-09-27T14:24:31;14.10;49.30
65235;DHT22;51820;48.374;10.930;2022-09-27T14:27:18;14.10;49.60
65235;DHT22;51820;48.374;10.930;2022-09-27T14:29:51;13.90;49.90
65235;DHT22;51820;48.374;10.930;2022-09-27T14:32:27;13.90;51.00
65235;DHT22;51820;48.374;10.930;2022-09-27T14:35:05;13.90;51.50
65235;DHT22;51820;48.374;10.930;2022-09-27T14:37:56;13.80;50.60
65235;DHT22;51820;48.374;10.930;2022-09-27T14:42:55;13.80;50.80
65235;DHT22;51820;48.374;10.930;2022-09-27T14:45:32;13.70;54.00
65235;DHT22;51820;48.374;10.930;2022-09-27T14:48:18;13.70;52.00
65235;DHT22;51820;48.374;10.930;2022-09-27T14:50:54;13.70;53.20
65235;DHT22;51820;48.374;10.930;2022-09-27T14:53:35;13.60;53.50
65235;DHT22;51820;48.374;10.930;2022-09-27T14:56:04;11.60;58.80
65235;DHT22;51820;48.374;10.930;2022-09-27T14:58:34;13.40;54.70
65235;DHT22;51820;48.374;10.930;2022-09-27T15:01:14;13.10;55.20
65235;DHT22;51820;48.374;10.930;2022-09-27T15:03:44;13.20;57.00
65235;DHT22;51820;48.374;10.930;2022-09-27T15:06:18;13.10;58.40
65235;DHT22;51820;48.374;10.930;2022-09-27T15:08:48;12.90;58.40
65235;DHT22;51820;48.374;10.930;2022-09-27T15:13:50;12.60;61.70
65235;DHT22;51820;48.374;10.930;2022-09-27T15:16:22;12.50;62.00
65235;DHT22;51820;48.374;10.930;2022-09-27T15:18:59;12.40;61.30
65235;DHT22;51820;48.374;10.930;2022-09-27T15:21:33;12.40;62.90
65235;DHT22;51820;48.374;10.930;2022-09-27T15:24:03;12.40;61.60
65235;DHT22;51820;48.374;10.930;2022-09-27T15:26:35;12.40;60.60
65235;DHT22;51820;48.374;10.930;2022-09-27T15:29:05;12.40;59.70
65235;DHT22;51820;48.374;10.930;2022-09-27T15:31:35;9.30;73.50
65235;DHT22;51820;48.374;10.930;2022-09-27T15:37:00;11.00;74.20
65235;DHT22;51820;48.374;10.930;2022-09-27T15:39:38;12.30;60.30
65235;DHT22;51820;48.374;10.930;2022-09-27T15:44:44;12.40;61.10
65235;DHT22;51820;48.374;10.930;2022-09-27T15:50:46;12.40;60.30
65235;DHT22;51820;48.374;10.930;2022-09-27T15:53:39;12.40;60.00
65235;DHT22;51820;48.374;10.930;2022-09-27T15:56:13;12.30;60.10
65235;DHT22;51820;48.374;10.930;2022-09-27T15:58:42;12.30;60.50
65235;DHT22;51820;48.374;10.930;2022-09-27T16:01:17;12.20;60.70
65235;DHT22;51820;48.374;10.930;2022-09-27T16:03:49;12.20;62.30
65235;DHT22;51820;48.374;10.930;2022-09-27T16:06:17;12.20;61.90
65235;DHT22;51820;48.374;10.930;2022-09-27T16:11:19;12.10;62.50
65235;DHT22;51820;48.374;10.930;2022-09-27T16:16:19;12.00;63.60
65235;DHT22;51820;48.374;10.930;2022-09-27T16:26:13;9.90;77.90
65235;DHT22;51820;48.374;10.930;2022-09-27T16:28:45;10.00;77.80
65235;DHT22;51820;48.374;10.930;2022-09-27T16:31:15;11.90;64.70
65235;DHT22;51820;48.374;10.930;2022-09-27T16:33:46;12.00;65.10
65235;DHT22;51820;48.374;10.930;2022-09-27T16:38:49;10.80;79.70
65235;DHT22;51820;48.374;10.930;2022-09-27T16:41:21;11.90;65.50
65235;DHT22;51820;48.374;10.930;2022-09-27T16:43:51;11.90;64.70
65235;DHT22;51820;48.374;10.930;2022-09-27T16:51:19;11.80;63.80
65235;DHT22;51820;48.374;10.930;2022-09-27T16:54:06;10.00;78.40
65235;DHT22;51820;48.374;10.930;2022-09-27T16:59:07;12.30;64.00
65235;DHT22;51820;48.374;10.930;2022-09-27T17:04:08;14.90;81.40
65235;DHT22;51820;48.374;10.930;2022-09-27T17:06:45;11.50;66.70
65235;DHT22;51820;48.374;10.930;2022-09-27T17:14:13;11.50;65.30
65235;DHT22;51820;48.374;10.930;2022-09-27T17:16:44;11.40;65.30
65235;DHT22;51820;48.374;10.930;2022-09-27T17:19:17;11.40;65.30
65235;DHT22;51820;48.374;10.930;2022-09-27T17:29:14;11.20;64.70
65235;DHT22;51820;48.374;10.930;2022-09-27T17:31:43;11.10;64.30
65235;DHT22;51820;48.374;10.930;2022-09-27T17:36:43;11.10;64.20
65235;DHT22;51820;48.374;10.930;2022-09-27T17:39:18;12.50;65.30
65235;DHT22;51820;48.374;10.930;2022-09-27T17:44:18;11.10;64.50
65235;DHT22;51820;48.374;10.930;2022-09-27T17:59:53;10.90;64.20
65235;DHT22;51820;48.374;10.930;2022-09-27T18:17:18;10.90;65.00
65235;DHT22;51820;48.374;10.930;2022-09-27T18:34:44;10.80;64.60
65235;DHT22;51820;48.374;10.930;2022-09-27T18:52:05;10.90;66.40
65235;DHT22;51820;48.374;10.930;2022-09-27T19:09:28;10.90;67.70
65235;DHT22;51820;48.374;10.930;2022-09-27T19:26:51;11.00;68.70
65235;DHT22;51820;48.374;10.930;2022-09-27T19:39:17;11.00;69.40
65235;DHT22;51820;48.374;10.930;2022-09-27T19:44:16;10.90;69.60
65235;DHT22;51820;48.374;10.930;2022-09-27T19:54:13;9.80;83.90
65235;DHT22;51820;48.374;10.930;2022-09-27T20:01:44;11.00;69.70
65235;DHT22;51820;48.374;10.930;2022-09-27T20:19:08;11.00;69.70
65235;DHT22;51820;48.374;10.930;2022-09-27T20:29:05;11.10;68.50
65235;DHT22;51820;48.374;10.930;2022-09-27T20:31:36;11.10;68.60
65235;DHT22;51820;48.374;10.930;2022-09-27T20:34:34;11.10;68.40
65235;DHT22;51820;48.374;10.930;2022-09-27T20:42:04;11.00;68.60
65235;DHT22;51820;48.374;10.930;2022-09-27T20:52:07;10.80;68.60
65235;DHT22;51820;48.374;10.930;2022-09-27T21:02:07;10.70;68.80
65235;DHT22;51820;48.374;10.930;2022-09-27T21:07:11;10.60;68.80
65235;DHT22;51820;48.374;10.930;2022-09-27T21:22:19;10.70;69.70
65235;DHT22;51820;48.374;10.930;2022-09-27T21:29:49;10.60;69.80
65235;DHT22;51820;48.374;10.930;2022-09-27T21:32:20;10.70;69.90
65235;DHT22;51820;48.374;10.930;2022-09-27T21:37:22;10.70;69.90
65235;DHT22;51820;48.374;10.930;2022-09-27T21:54:42;11.10;85.20
65235;DHT22;51820;48.374;10.930;2022-09-27T22:12:05;10.50;69.50
65235;DHT22;51820;48.374;10.930;2022-09-27T22:29:26;10.40;69.30
65235;DHT22;51820;48.374;10.930;2022-09-27T22:37:07;10.30;70.00
65235;DHT22;51820;48.374;10.930;2022-09-27T22:44:33;10.40;70.10
65235;DHT22;51820;48.374;10.930;2022-09-27T22:59:33;10.40;70.50
65235;DHT22;51820;48.374;10.930;2022-09-27T23:16:56;10.50;70.90
65235;DHT22;51820;48.374;10.930;2022-09-27T23:26:50;8.00;83.60
65235;DHT22;51820;48.374;10.930;2022-09-27T23:32:10;9.90;87.30
65235;DHT22;51820;48.374;10.930;2022-09-27T23:49:32;10.50;72.90
65235;DHT22;51820;48.374;10.930;2022-09-27T23:54:29;10.60;73.10
